createdAt,value
2019-04-21T00:01:24.253Z,93.00
2019-04-21T00:04:02.759Z,93.00
2019-04-21T00:06:48.164Z,93.40
2019-04-21T00:09:19.198Z,93.90
2019-04-21T00:11:47.196Z,93.80
2019-04-21T00:14:14.130Z,94.40
2019-04-21T00:16:41.512Z,94.20
2019-04-21T00:19:26.388Z,94.50
2019-04-21T00:22:01.682Z,94.60
2019-04-21T00:24:43.458Z,95.10
2019-04-21T00:27:11.149Z,95.10
2019-04-21T00:29:50.118Z,95.10
2019-04-21T00:32:16.751Z,95.40
2019-04-21T00:34:32.166Z,95.70
2019-04-21T00:37:12.143Z,95.70
2019-04-21T00:40:01.824Z,96.00
2019-04-21T00:42:22.846Z,96.00
2019-04-21T00:44:55.716Z,96.50
2019-04-21T00:47:31.664Z,96.50
2019-04-21T00:50:05.196Z,96.30
2019-04-21T00:55:23.439Z,96.20
2019-04-21T01:00:18.710Z,96.40
2019-04-21T01:02:51.171Z,96.40
2019-04-21T01:05:37.281Z,96.70
2019-04-21T01:07:45.560Z,96.70
2019-04-21T01:10:14.675Z,96.50
2019-04-21T01:12:57.705Z,96.70
2019-04-21T01:15:30.611Z,96.50
2019-04-21T01:17:57.651Z,96.80
2019-04-21T01:20:16.759Z,96.70
2019-04-21T01:22:39.531Z,96.90
2019-04-21T01:25:19.919Z,97.10
2019-04-21T01:27:53.926Z,97.10
2019-04-21T01:30:34.514Z,97.10
2019-04-21T01:33:07.598Z,97.20
2019-04-21T01:35:39.683Z,97.20
2019-04-21T01:38:32.776Z,97.60
2019-04-21T01:40:43.120Z,98.00
2019-04-21T01:43:07.788Z,98.10
2019-04-21T01:45:45.825Z,98.10
2019-04-21T01:48:11.323Z,98.40
2019-04-21T01:50:42.359Z,98.70
2019-04-21T01:53:38.423Z,98.60
2019-04-21T01:56:24.519Z,98.50
2019-04-21T01:58:46.129Z,98.70
2019-04-21T02:01:31.435Z,98.30
2019-04-21T02:04:14.076Z,98.60
2019-04-21T02:06:45.668Z,98.70
2019-04-21T02:09:02.243Z,98.90
2019-04-21T02:11:35.792Z,98.60
2019-04-21T02:16:40.719Z,98.60
2019-04-21T02:19:04.400Z,98.90
2019-04-21T02:21:36.953Z,99.00
2019-04-21T02:24:24.936Z,98.70
2019-04-21T02:26:47.475Z,98.80
2019-04-21T02:29:23.018Z,99.00
2019-04-21T02:32:05.140Z,99.00
2019-04-21T02:34:37.345Z,99.10
2019-04-21T02:37:22.939Z,98.80
2019-04-21T02:39:43.637Z,99.00
2019-04-21T02:42:05.676Z,98.60
2019-04-21T02:46:59.750Z,98.60
2019-04-21T02:50:00.289Z,98.40
2019-04-21T02:52:20.075Z,98.50
2019-04-21T02:55:01.279Z,98.10
2019-04-21T03:00:06.894Z,98.70
2019-04-21T03:05:28.803Z,99.10
2019-04-21T03:07:56.908Z,99.60
2019-04-21T03:10:38.645Z,99.40
2019-04-21T03:13:03.648Z,99.40
2019-04-21T03:15:29.206Z,99.30
2019-04-21T03:18:19.110Z,99.30
2019-04-21T03:20:35.830Z,99.30
2019-04-21T03:23:13.398Z,99.30
2019-04-21T03:25:41.955Z,99.40
2019-04-21T03:28:16.305Z,99.50
2019-04-21T03:31:06.468Z,99.70
2019-04-21T03:34:02.439Z,99.50
2019-04-21T03:36:13.054Z,99.20
2019-04-21T03:38:29.285Z,99.40
2019-04-21T03:40:44.406Z,99.60
2019-04-21T03:43:20.154Z,99.60
2019-04-21T03:45:51.414Z,99.50
2019-04-21T03:48:26.770Z,99.80
2019-04-21T03:50:56.384Z,99.90
2019-04-21T03:53:24.856Z,99.90
2019-04-21T03:58:44.922Z,99.90
2019-04-21T04:04:26.375Z,99.90
2019-04-21T04:06:43.201Z,99.90
2019-04-21T04:11:56.595Z,99.90
2019-04-21T04:16:57.175Z,99.90
2019-04-21T04:19:14.657Z,99.90
2019-04-21T04:21:57.418Z,99.90
2019-04-21T04:26:55.213Z,99.90
2019-04-21T04:29:30.050Z,99.90
2019-04-21T04:32:14.655Z,99.90
2019-04-21T04:34:49.782Z,99.90
2019-04-21T04:37:14.198Z,99.90
2019-04-21T04:44:57.091Z,99.90
2019-04-21T04:47:16.664Z,99.90
2019-04-21T04:52:27.810Z,99.90
2019-04-21T04:54:59.464Z,99.90
2019-04-21T05:00:00.496Z,99.90
2019-04-21T05:05:08.436Z,99.90
2019-04-21T05:12:29.595Z,99.90
2019-04-21T05:15:07.898Z,99.90
2019-04-21T05:17:41.492Z,99.90
2019-04-21T05:20:11.652Z,99.90
2019-04-21T05:22:51.304Z,99.90
2019-04-21T05:25:00.329Z,99.90
2019-04-21T05:27:29.611Z,99.90
2019-04-21T05:30:17.806Z,99.90
2019-04-21T05:32:48.847Z,99.90
2019-04-21T05:35:16.934Z,99.90
2019-04-21T05:37:47.282Z,99.90
2019-04-21T05:40:17.441Z,99.90
2019-04-21T05:42:52.532Z,99.90
2019-04-21T05:45:37.304Z,99.90
2019-04-21T05:48:23.209Z,99.90
2019-04-21T05:50:34.948Z,99.90
2019-04-21T05:53:19.322Z,99.90
2019-04-21T05:55:45.987Z,99.90
2019-04-21T05:58:29.920Z,99.90
2019-04-21T06:01:18.306Z,99.70
2019-04-21T06:03:31.861Z,99.50
2019-04-21T06:06:08.687Z,99.80
2019-04-21T06:08:38.933Z,99.70
2019-04-21T06:11:05.413Z,99.80
2019-04-21T06:13:45.335Z,99.50
2019-04-21T06:16:24.185Z,99.10
2019-04-21T06:18:42.081Z,98.10
2019-04-21T06:21:09.845Z,97.50
2019-04-21T06:23:40.191Z,96.90
2019-04-21T06:26:28.004Z,96.50
2019-04-21T06:28:48.061Z,96.10
2019-04-21T06:31:26.949Z,95.90
2019-04-21T06:39:06.360Z,95.00
2019-04-21T06:41:32.772Z,94.60
2019-04-21T06:44:06.071Z,95.00
2019-04-21T06:49:02.752Z,94.70
2019-04-21T06:51:32.433Z,94.50
2019-04-21T06:54:09.631Z,94.30
2019-04-21T06:56:41.348Z,94.10
2019-04-21T06:59:09.477Z,93.90
2019-04-21T07:01:48.714Z,93.70
2019-04-21T07:09:21.159Z,93.00
2019-04-21T07:11:44.974Z,93.20
2019-04-21T07:19:30.691Z,92.40
2019-04-21T07:21:51.010Z,92.40
2019-04-21T07:27:04.380Z,91.10
2019-04-21T07:29:34.742Z,90.90
2019-04-21T07:32:05.015Z,90.50
2019-04-21T07:34:36.234Z,90.20
2019-04-21T07:37:17.359Z,87.20
2019-04-21T07:39:33.576Z,85.60
2019-04-21T07:42:06.729Z,86.00
2019-04-21T07:44:37.887Z,85.00
2019-04-21T07:47:11.798Z,83.30
2019-04-21T07:49:55.215Z,83.70
2019-04-21T07:52:49.090Z,82.80
2019-04-21T07:55:21.763Z,82.00
2019-04-21T07:57:36.760Z,80.20
2019-04-21T08:00:20.990Z,79.80
2019-04-21T08:02:40.375Z,78.00
2019-04-21T08:07:57.130Z,76.30
2019-04-21T08:10:16.069Z,75.00
2019-04-21T08:12:48.202Z,72.10
2019-04-21T08:15:31.017Z,73.90
2019-04-21T08:18:05.942Z,71.80
2019-04-21T08:20:24.700Z,70.70
2019-04-21T08:23:13.001Z,69.60
2019-04-21T08:25:30.786Z,68.00
2019-04-21T08:27:59.856Z,66.20
2019-04-21T08:30:32.115Z,62.60
2019-04-21T08:33:09.223Z,61.50
2019-04-21T08:36:01.162Z,59.10
2019-04-21T08:38:11.369Z,56.00
2019-04-21T08:40:45.798Z,52.60
2019-04-21T08:43:14.251Z,50.70
2019-04-21T08:45:43.302Z,49.80
2019-04-21T08:48:17.125Z,48.40
2019-04-21T08:50:45.979Z,48.00
2019-04-21T08:53:13.859Z,48.40
2019-04-21T08:56:12.298Z,47.40
2019-04-21T08:59:09.521Z,46.60
2019-04-21T09:04:13.189Z,46.50
2019-04-21T09:06:58.962Z,47.60
2019-04-21T09:09:16.750Z,47.00
2019-04-21T09:11:49.886Z,46.40
2019-04-21T09:14:20.786Z,45.30
2019-04-21T09:16:47.619Z,45.50
2019-04-21T09:19:35.262Z,44.40
2019-04-21T09:21:54.596Z,43.80
2019-04-21T09:24:41.227Z,44.40
2019-04-21T09:26:57.615Z,44.70
2019-04-21T09:29:21.885Z,45.10
2019-04-21T09:31:43.518Z,44.50
2019-04-21T09:34:20.624Z,44.60
2019-04-21T09:36:49.441Z,44.20
2019-04-21T09:39:20.091Z,46.70
2019-04-21T09:41:53.481Z,46.30
2019-04-21T09:44:27.615Z,46.40
2019-04-21T09:46:55.973Z,45.90
2019-04-21T09:49:27.149Z,44.40
2019-04-21T09:51:55.262Z,42.10
2019-04-21T09:54:29.826Z,41.40
2019-04-21T09:57:01.613Z,39.90
2019-04-21T09:59:33.564Z,40.10
2019-04-21T10:02:09.556Z,39.40
2019-04-21T10:04:33.512Z,39.10
2019-04-21T10:07:04.578Z,39.50
2019-04-21T10:09:35.592Z,40.30
2019-04-21T10:12:05.634Z,38.90
2019-04-21T10:14:36.594Z,38.40
2019-04-21T10:17:20.131Z,38.40
2019-04-21T10:19:50.697Z,38.90
2019-04-21T10:22:21.160Z,37.80
2019-04-21T10:24:52.160Z,37.40
2019-04-21T10:27:23.121Z,36.60
2019-04-21T10:29:53.968Z,36.10
2019-04-21T10:32:25.340Z,35.70
2019-04-21T10:34:55.393Z,34.80
2019-04-21T10:37:37.526Z,35.90
2019-04-21T10:39:57.773Z,36.00
2019-04-21T10:42:29.102Z,35.50
2019-04-21T10:44:59.014Z,36.20
2019-04-21T10:47:29.362Z,33.00
2019-04-21T10:50:00.486Z,31.60
2019-04-21T10:52:49.065Z,30.00
2019-04-21T10:55:36.736Z,28.30
2019-04-21T10:58:10.865Z,27.30
2019-04-21T11:00:43.995Z,26.90
2019-04-21T11:03:31.103Z,27.00
2019-04-21T11:06:03.234Z,25.00
2019-04-21T11:08:37.955Z,24.70
2019-04-21T11:11:07.848Z,25.80
2019-04-21T11:13:38.873Z,25.60
2019-04-21T11:16:09.070Z,25.10
2019-04-21T11:18:39.869Z,24.50
2019-04-21T11:21:11.101Z,23.60
2019-04-21T11:23:41.187Z,23.90
2019-04-21T11:26:12.003Z,23.30
2019-04-21T11:28:43.051Z,23.00
2019-04-21T11:31:13.323Z,22.40
2019-04-21T11:33:45.226Z,23.30
2019-04-21T11:36:15.707Z,23.20
2019-04-21T11:39:16.607Z,23.10
2019-04-21T11:41:34.148Z,22.70
2019-04-21T11:44:05.020Z,23.90
2019-04-21T11:46:36.314Z,22.90
2019-04-21T11:49:06.416Z,22.90
2019-04-21T11:51:37.304Z,22.60
2019-04-21T11:54:08.666Z,21.90
2019-04-21T11:56:39.276Z,21.70
2019-04-21T11:59:09.983Z,21.80
2019-04-21T12:01:39.901Z,23.00
2019-04-21T12:04:10.027Z,22.70
2019-04-21T12:06:44.463Z,22.40
2019-04-21T12:09:11.967Z,21.70
2019-04-21T12:11:43.134Z,20.80
2019-04-21T12:14:14.225Z,21.70
2019-04-21T12:16:44.337Z,21.70
2019-04-21T12:19:14.643Z,20.40
2019-04-21T12:21:54.577Z,19.40
2019-04-21T12:24:15.831Z,20.50
2019-04-21T12:26:46.356Z,20.70
2019-04-21T12:29:16.661Z,20.20
2019-04-21T12:32:05.637Z,20.10
2019-04-21T12:34:36.239Z,20.80
2019-04-21T12:37:06.715Z,20.80
2019-04-21T12:39:36.995Z,21.80
2019-04-21T12:42:08.815Z,21.90
2019-04-21T12:44:41.343Z,21.90
2019-04-21T12:47:12.012Z,22.00
2019-04-21T12:49:41.880Z,20.50
2019-04-21T12:52:11.662Z,20.00
2019-04-21T12:54:41.784Z,20.30
2019-04-21T12:57:11.793Z,21.80
2019-04-21T12:59:42.666Z,21.50
2019-04-21T13:02:13.736Z,21.10
2019-04-21T13:04:43.943Z,20.70
2019-04-21T13:07:15.278Z,21.10
2019-04-21T13:09:46.296Z,21.90
2019-04-21T13:12:17.810Z,24.00
2019-04-21T13:14:49.550Z,24.20
2019-04-21T13:17:19.604Z,25.00
2019-04-21T13:19:49.553Z,25.30
2019-04-21T13:22:19.468Z,26.20
2019-04-21T13:24:49.633Z,27.50
2019-04-21T13:27:20.640Z,26.70
2019-04-21T13:29:50.679Z,25.70
2019-04-21T13:32:20.542Z,27.40
2019-04-21T13:34:50.968Z,26.30
2019-04-21T13:37:21.480Z,25.70
2019-04-21T13:40:22.448Z,24.90
2019-04-21T13:42:36.345Z,25.60
2019-04-21T13:45:02.540Z,26.70
2019-04-21T13:47:32.487Z,27.80
2019-04-21T13:50:03.685Z,27.00
2019-04-21T13:52:34.058Z,26.40
2019-04-21T13:55:05.529Z,27.20
2019-04-21T13:57:36.613Z,27.30
2019-04-21T14:00:08.932Z,28.20
2019-04-21T14:02:40.659Z,28.20
2019-04-21T14:05:13.697Z,27.60
2019-04-21T14:07:43.986Z,27.40
2019-04-21T14:10:17.845Z,29.10
2019-04-21T14:12:48.924Z,28.30
2019-04-21T14:15:22.104Z,27.70
2019-04-21T14:17:53.098Z,28.50
2019-04-21T14:20:23.216Z,28.80
2019-04-21T14:22:53.988Z,27.80
2019-04-21T14:25:23.981Z,28.40
2019-04-21T14:27:54.583Z,28.50
2019-04-21T14:30:26.514Z,28.60
2019-04-21T14:32:57.841Z,31.60
2019-04-21T14:35:29.271Z,30.00
2019-04-21T14:38:00.272Z,28.60
2019-04-21T14:40:33.249Z,29.10
2019-04-21T14:43:02.659Z,29.40
2019-04-21T14:45:38.822Z,29.30
2019-04-21T14:48:23.257Z,30.90
2019-04-21T14:51:07.488Z,30.30
2019-04-21T14:53:57.254Z,30.60
2019-04-21T14:56:27.208Z,30.70
2019-04-21T14:58:58.996Z,31.30
2019-04-21T15:01:29.199Z,31.60
2019-04-21T15:03:59.790Z,31.20
2019-04-21T15:06:31.488Z,30.90
2019-04-21T15:09:01.455Z,31.90
2019-04-21T15:11:31.950Z,29.60
2019-04-21T15:14:02.079Z,29.50
2019-04-21T15:16:32.900Z,29.90
2019-04-21T15:19:04.430Z,29.40
2019-04-21T15:21:35.404Z,31.10
2019-04-21T15:24:06.532Z,31.30
2019-04-21T15:26:37.970Z,31.40
2019-04-21T15:29:08.863Z,31.60
2019-04-21T15:31:41.569Z,32.20
2019-04-21T15:34:11.103Z,31.70
2019-04-21T15:36:41.877Z,32.20
2019-04-21T15:39:11.979Z,31.80
2019-04-21T15:41:42.800Z,31.80
2019-04-21T15:44:12.792Z,31.50
2019-04-21T15:46:43.898Z,31.20
2019-04-21T15:49:14.968Z,31.30
2019-04-21T15:51:46.384Z,31.20
2019-04-21T15:54:18.532Z,31.10
2019-04-21T15:57:00.629Z,30.10
2019-04-21T15:59:36.811Z,30.70
2019-04-21T16:02:24.651Z,29.80
2019-04-21T16:04:54.853Z,30.50
2019-04-21T16:07:24.898Z,30.00
2019-04-21T16:09:55.116Z,31.00
2019-04-21T16:12:25.652Z,32.10
2019-04-21T16:14:56.571Z,31.20
2019-04-21T16:17:27.597Z,31.60
2019-04-21T16:19:59.737Z,30.00
2019-04-21T16:22:30.615Z,30.30
2019-04-21T16:25:00.935Z,29.70
2019-04-21T16:27:31.310Z,29.50
2019-04-21T16:30:01.949Z,29.80
2019-04-21T16:32:32.389Z,29.80
2019-04-21T16:35:08.264Z,30.00
2019-04-21T16:37:35.411Z,29.80
2019-04-21T16:40:09.482Z,30.00
2019-04-21T16:42:40.400Z,30.90
2019-04-21T16:45:12.396Z,31.40
2019-04-21T16:47:44.151Z,30.60
2019-04-21T16:50:15.895Z,30.10
2019-04-21T16:53:05.999Z,30.50
2019-04-21T16:55:44.948Z,30.30
2019-04-21T16:58:23.120Z,30.80
2019-04-21T17:01:00.901Z,31.90
2019-04-21T17:03:24.657Z,31.60
2019-04-21T17:05:54.456Z,32.00
2019-04-21T17:08:24.267Z,33.00
2019-04-21T17:11:05.598Z,33.80
2019-04-21T17:13:27.222Z,34.20
2019-04-21T17:16:15.205Z,33.70
2019-04-21T17:18:44.677Z,33.20
2019-04-21T17:21:02.658Z,33.20
2019-04-21T17:23:33.472Z,34.00
2019-04-21T17:26:03.574Z,34.40
2019-04-21T17:28:34.370Z,34.00
2019-04-21T17:31:04.759Z,34.20
2019-04-21T17:33:35.519Z,34.60
2019-04-21T17:36:07.171Z,34.80
2019-04-21T17:38:37.222Z,35.20
2019-04-21T17:41:19.318Z,35.30
2019-04-21T17:43:39.563Z,35.80
2019-04-21T17:46:13.577Z,35.70
2019-04-21T17:48:43.244Z,35.80
2019-04-21T17:51:15.711Z,35.80
2019-04-21T17:53:57.673Z,36.00
2019-04-21T17:56:53.751Z,36.10
2019-04-21T17:59:28.075Z,36.50
2019-04-21T18:01:54.540Z,36.60
2019-04-21T18:04:28.945Z,37.00
2019-04-21T18:06:56.492Z,37.00
2019-04-21T18:09:45.446Z,37.00
2019-04-21T18:12:13.623Z,37.00
2019-04-21T18:14:24.346Z,37.30
2019-04-21T18:16:56.294Z,37.40
2019-04-21T18:19:30.946Z,37.50
2019-04-21T18:22:08.903Z,37.70
2019-04-21T18:24:55.544Z,37.80
2019-04-21T18:27:15.693Z,38.50
2019-04-21T18:29:46.456Z,38.90
2019-04-21T18:32:26.382Z,38.40
2019-04-21T18:35:07.422Z,38.60
2019-04-21T18:37:45.796Z,39.00
2019-04-21T18:40:20.446Z,39.30
2019-04-21T18:48:22.001Z,40.70
2019-04-21T18:51:02.667Z,40.90
2019-04-21T18:53:44.184Z,41.00
2019-04-21T18:56:05.295Z,43.30
2019-04-21T18:58:32.558Z,43.80
2019-04-21T19:01:10.519Z,43.20
2019-04-21T19:03:41.064Z,45.20
2019-04-21T19:06:11.661Z,46.20
2019-04-21T19:08:59.997Z,47.20
2019-04-21T19:11:29.660Z,48.20
2019-04-21T19:14:28.559Z,50.10
2019-04-21T19:19:36.666Z,51.00
2019-04-21T19:21:40.282Z,52.00
2019-04-21T19:24:24.293Z,52.70
2019-04-21T19:26:58.796Z,54.30
2019-04-21T19:29:29.718Z,55.60
2019-04-21T19:31:54.962Z,56.00
2019-04-21T19:34:17.408Z,58.20
2019-04-21T19:36:46.742Z,60.40
2019-04-21T19:39:23.316Z,61.60
2019-04-21T19:41:58.386Z,63.30
2019-04-21T19:44:34.055Z,65.20
2019-04-21T19:47:10.731Z,66.50
2019-04-21T19:49:45.547Z,67.40
2019-04-21T19:52:01.994Z,68.60
2019-04-21T19:54:34.193Z,69.40
2019-04-21T19:56:58.685Z,70.10
2019-04-21T19:59:36.757Z,71.10
2019-04-21T20:02:00.878Z,71.80
2019-04-21T20:04:38.533Z,73.80
2019-04-21T20:07:22.107Z,74.40
2019-04-21T20:09:56.775Z,75.30
2019-04-21T20:12:34.493Z,76.40
2019-04-21T20:15:04.927Z,78.70
2019-04-21T20:17:32.476Z,79.30
2019-04-21T20:19:44.895Z,79.70
2019-04-21T20:22:16.759Z,80.30
2019-04-21T20:24:53.847Z,80.20
2019-04-21T20:27:31.144Z,80.40
2019-04-21T20:30:07.093Z,81.30
2019-04-21T20:32:53.398Z,79.60
2019-04-21T20:35:25.004Z,80.50
2019-04-21T20:37:48.021Z,81.60
2019-04-21T20:40:10.201Z,82.00
2019-04-21T20:42:47.122Z,82.20
2019-04-21T20:45:34.979Z,82.80
2019-04-21T20:47:46.289Z,82.50
2019-04-21T20:50:28.656Z,82.80
2019-04-21T20:53:06.042Z,83.10
2019-04-21T20:55:26.503Z,82.80
2019-04-21T20:57:59.592Z,83.50
2019-04-21T21:00:43.041Z,84.60
2019-04-21T21:03:12.196Z,84.90
2019-04-21T21:05:39.976Z,85.20
2019-04-21T21:08:16.946Z,86.10
2019-04-21T21:10:48.247Z,86.30
2019-04-21T21:13:26.700Z,86.60
2019-04-21T21:16:06.135Z,86.30
2019-04-21T21:18:51.842Z,85.80
2019-04-21T21:20:59.053Z,86.60
2019-04-21T21:23:29.096Z,85.40
2019-04-21T21:26:01.995Z,85.40
2019-04-21T21:28:26.621Z,86.30
2019-04-21T21:31:07.410Z,85.50
2019-04-21T21:33:46.882Z,86.30
2019-04-21T21:36:10.687Z,85.70
2019-04-21T21:38:43.506Z,85.50
2019-04-21T21:41:07.673Z,85.40
2019-04-21T21:43:30.474Z,85.20
2019-04-21T21:46:04.807Z,85.40
2019-04-21T21:48:47.594Z,88.40
2019-04-21T21:51:13.000Z,87.60
2019-04-21T21:53:38.762Z,87.00
2019-04-21T21:56:09.028Z,86.50
2019-04-21T21:58:43.918Z,86.40
2019-04-21T22:01:15.435Z,85.80
2019-04-21T22:03:48.895Z,86.70
2019-04-21T22:06:23.924Z,88.30
2019-04-21T22:08:54.475Z,87.70
2019-04-21T22:11:26.231Z,88.40
2019-04-21T22:14:02.777Z,89.10
2019-04-21T22:16:46.620Z,89.30
2019-04-21T22:19:19.293Z,90.00
2019-04-21T22:21:53.256Z,90.10
2019-04-21T22:24:20.299Z,90.40
2019-04-21T22:26:39.013Z,90.30
2019-04-21T22:29:10.017Z,90.10
2019-04-21T22:31:42.635Z,90.40
2019-04-21T22:34:15.803Z,90.50
2019-04-21T22:36:55.128Z,90.90
2019-04-21T22:39:35.005Z,90.90
2019-04-21T22:41:58.528Z,91.00
2019-04-21T22:44:22.602Z,91.20
2019-04-21T22:47:02.173Z,91.00
2019-04-21T22:49:26.419Z,91.20
2019-04-21T22:52:00.797Z,91.20
2019-04-21T22:54:35.452Z,91.50
2019-04-21T22:57:11.743Z,91.70
2019-04-21T22:59:35.644Z,90.80
2019-04-21T23:02:13.610Z,91.40
2019-04-21T23:04:43.750Z,92.10
2019-04-21T23:07:15.109Z,92.10
2019-04-21T23:09:43.340Z,92.30
2019-04-21T23:12:20.502Z,92.20
2019-04-21T23:14:55.491Z,92.10
2019-04-21T23:17:38.925Z,92.00
2019-04-21T23:20:10.528Z,92.20
2019-04-21T23:22:51.395Z,91.80
2019-04-21T23:25:12.386Z,91.50
2019-04-21T23:27:47.973Z,91.40
2019-04-21T23:30:20.149Z,91.30
2019-04-21T23:32:40.652Z,91.20
2019-04-21T23:35:09.077Z,91.40
2019-04-21T23:37:34.200Z,91.70
2019-04-21T23:40:12.651Z,91.50
2019-04-21T23:42:41.643Z,91.20
2019-04-21T23:45:10.628Z,91.30
2019-04-21T23:47:52.818Z,91.60
2019-04-21T23:50:24.752Z,91.10
2019-04-21T23:52:45.755Z,91.30
2019-04-21T23:55:18.982Z,91.00
2019-04-21T23:57:51.568Z,91.20
